sensor_id;sensor_type;location;lat;lon;timestamp;pressure;altitude;pressure_sealevel;temperature;humidity
22755;BME280;11544;42.020;23.094;2023-03-20T00:01:27;97570.91;;;6.45;64.38
22755;BME280;11544;42.020;23.094;2023-03-20T00:03:56;97568.78;;;6.76;64.31
22755;BME280;11544;42.020;23.094;2023-03-20T00:06:25;97560.56;;;7.04;63.92
22755;BME280;11544;42.020;23.094;2023-03-20T00:08:53;97566.84;;;6.89;63.38
22755;BME280;11544;42.020;23.094;2023-03-20T00:11:30;97556.97;;;7.14;63.13
22755;BME280;11544;42.020;23.094;2023-03-20T00:14:02;97553.81;;;6.93;62.45
22755;BME280;11544;42.020;23.094;2023-03-20T00:16:34;97557.44;;;6.83;63.17
22755;BME280;11544;42.020;23.094;2023-03-20T00:19:03;97556.44;;;6.31;64.09
22755;BME280;11544;42.020;23.094;2023-03-20T00:21:32;97551.13;;;6.39;64.70
22755;BME280;11544;42.020;23.094;2023-03-20T00:23:59;97555.69;;;6.22;65.60
22755;BME280;11544;42.020;23.094;2023-03-20T00:26:32;97551.19;;;6.36;65.89
22755;BME280;11544;42.020;23.094;2023-03-20T00:29:00;97551.47;;;6.13;66.99
22755;BME280;11544;42.020;23.094;2023-03-20T00:31:37;97556.66;;;6.13;67.71
22755;BME280;11544;42.020;23.094;2023-03-20T00:34:11;97554.94;;;6.12;67.53
22755;BME280;11544;42.020;23.094;2023-03-20T00:36:39;97555.59;;;6.29;67.63
22755;BME280;11544;42.020;23.094;2023-03-20T00:39:06;97551.84;;;5.78;68.15
22755;BME280;11544;42.020;23.094;2023-03-20T00:46:55;97558.72;;;5.82;71.52
22755;BME280;11544;42.020;23.094;2023-03-20T00:49:28;97547.34;;;5.98;70.05
22755;BME280;11544;42.020;23.094;2023-03-20T00:51:56;97541.97;;;6.17;68.77
22755;BME280;11544;42.020;23.094;2023-03-20T00:54:24;97530.75;;;6.14;67.95
22755;BME280;11544;42.020;23.094;2023-03-20T01:02:33;97535.56;;;5.69;70.07
22755;BME280;11544;42.020;23.094;2023-03-20T01:05:01;97539.38;;;5.33;71.52
22755;BME280;11544;42.020;23.094;2023-03-20T01:07:30;97543.66;;;5.37;72.82
22755;BME280;11544;42.020;23.094;2023-03-20T01:09:59;97530.94;;;5.14;73.58
22755;BME280;11544;42.020;23.094;2023-03-20T01:12:32;97534.88;;;5.54;72.42
22755;BME280;11544;42.020;23.094;2023-03-20T01:14:59;97536.81;;;5.30;72.50
22755;BME280;11544;42.020;23.094;2023-03-20T01:17:27;97528.09;;;5.43;73.02
22755;BME280;11544;42.020;23.094;2023-03-20T01:19:56;97528.81;;;5.55;71.76
22755;BME280;11544;42.020;23.094;2023-03-20T01:22:33;97533.34;;;5.31;72.71
22755;BME280;11544;42.020;23.094;2023-03-20T01:25:06;97535.09;;;5.32;73.12
22755;BME280;11544;42.020;23.094;2023-03-20T01:27:38;97530.94;;;5.14;74.07
22755;BME280;11544;42.020;23.094;2023-03-20T01:30:33;97535.41;;;5.83;72.80
22755;BME280;11544;42.020;23.094;2023-03-20T01:33:12;97528.56;;;5.76;70.94
22755;BME280;11544;42.020;23.094;2023-03-20T01:35:52;97533.97;;;5.56;69.90
22755;BME280;11544;42.020;23.094;2023-03-20T01:38:23;97535.53;;;5.71;70.35
22755;BME280;11544;42.020;23.094;2023-03-20T01:41:00;97537.66;;;5.30;72.15
22755;BME280;11544;42.020;23.094;2023-03-20T01:43:32;97539.41;;;5.32;73.00
22755;BME280;11544;42.020;23.094;2023-03-20T01:51:24;97535.84;;;5.40;73.25
22755;BME280;11544;42.020;23.094;2023-03-20T01:54:06;97545.03;;;5.72;72.70
22755;BME280;11544;42.020;23.094;2023-03-20T01:57:01;97547.94;;;5.40;74.19
22755;BME280;11544;42.020;23.094;2023-03-20T02:02:16;97544.47;;;5.41;75.44
22755;BME280;11544;42.020;23.094;2023-03-20T02:04:47;97548.16;;;5.15;74.82
22755;BME280;11544;42.020;23.094;2023-03-20T02:07:20;97551.78;;;4.93;76.06
22755;BME280;11544;42.020;23.094;2023-03-20T02:09:49;97558.84;;;4.63;77.30
22755;BME280;11544;42.020;23.094;2023-03-20T02:12:20;97561.44;;;4.63;78.45
22755;BME280;11544;42.020;23.094;2023-03-20T02:14:53;97574.28;;;4.74;79.25
22755;BME280;11544;42.020;23.094;2023-03-20T02:17:29;97573.66;;;4.35;79.06
22755;BME280;11544;42.020;23.094;2023-03-20T02:20:05;97571.75;;;4.71;79.28
22755;BME280;11544;42.020;23.094;2023-03-20T02:22:46;97566.44;;;4.92;76.95
22755;BME280;11544;42.020;23.094;2023-03-20T02:28:18;97558.47;;;5.20;74.92
22755;BME280;11544;42.020;23.094;2023-03-20T02:48:47;97571.13;;;4.18;83.37
22755;BME280;11544;42.020;23.094;2023-03-20T02:51:28;97577.19;;;4.15;83.83
22755;BME280;11544;42.020;23.094;2023-03-20T02:56:45;97577.06;;;4.37;83.56
22755;BME280;11544;42.020;23.094;2023-03-20T02:59:54;97583.31;;;3.88;84.08
22755;BME280;11544;42.020;23.094;2023-03-20T03:02:36;97593.50;;;4.22;84.99
22755;BME280;11544;42.020;23.094;2023-03-20T03:08:02;97582.97;;;4.62;81.52
22755;BME280;11544;42.020;23.094;2023-03-20T03:10:35;97577.84;;;4.59;80.52
22755;BME280;11544;42.020;23.094;2023-03-20T03:13:05;97577.72;;;4.74;79.76
22755;BME280;11544;42.020;23.094;2023-03-20T03:15:40;97576.97;;;4.55;79.31
22755;BME280;11544;42.020;23.094;2023-03-20T03:18:16;97575.13;;;4.79;78.05
22755;BME280;11544;42.020;23.094;2023-03-20T03:20:47;97577.78;;;4.65;77.25
22755;BME280;11544;42.020;23.094;2023-03-20T03:23:29;97567.47;;;4.68;76.92
22755;BME280;11544;42.020;23.094;2023-03-20T03:26:01;97565.81;;;4.49;77.25
22755;BME280;11544;42.020;23.094;2023-03-20T03:28:37;97562.47;;;4.37;78.85
22755;BME280;11544;42.020;23.094;2023-03-20T03:31:15;97561.38;;;4.72;78.40
22755;BME280;11544;42.020;23.094;2023-03-20T03:33:46;97568.22;;;4.81;77.85
22755;BME280;11544;42.020;23.094;2023-03-20T03:39:07;97560.69;;;4.45;77.99
22755;BME280;11544;42.020;23.094;2023-03-20T03:41:47;97555.81;;;5.26;75.48
22755;BME280;11544;42.020;23.094;2023-03-20T03:44:24;97557.75;;;4.99;74.90
22755;BME280;11544;42.020;23.094;2023-03-20T03:47:10;97549.88;;;5.15;75.22
22755;BME280;11544;42.020;23.094;2023-03-20T03:49:49;97558.78;;;4.72;75.19
22755;BME280;11544;42.020;23.094;2023-03-20T03:52:25;97564.94;;;4.57;77.53
22755;BME280;11544;42.020;23.094;2023-03-20T03:55:14;97557.16;;;4.63;76.37
22755;BME280;11544;42.020;23.094;2023-03-20T03:57:48;97554.59;;;4.57;77.66
22755;BME280;11544;42.020;23.094;2023-03-20T04:00:22;97566.84;;;4.21;79.06
22755;BME280;11544;42.020;23.094;2023-03-20T04:02:53;97572.84;;;4.20;80.27
22755;BME280;11544;42.020;23.094;2023-03-20T04:05:24;97568.47;;;4.42;79.72
22755;BME280;11544;42.020;23.094;2023-03-20T04:07:54;97569.41;;;4.20;80.15
22755;BME280;11544;42.020;23.094;2023-03-20T04:10:24;97567.06;;;3.49;83.32
22755;BME280;11544;42.020;23.094;2023-03-20T04:12:52;97567.06;;;3.52;85.83
22755;BME280;11544;42.020;23.094;2023-03-20T04:15:19;97567.06;;;3.57;84.61
22755;BME280;11544;42.020;23.094;2023-03-20T04:17:48;97566.16;;;3.76;84.62
22755;BME280;11544;42.020;23.094;2023-03-20T04:20:17;97562.66;;;3.91;83.19
22755;BME280;11544;42.020;23.094;2023-03-20T04:22:45;97556.69;;;3.71;83.39
22755;BME280;11544;42.020;23.094;2023-03-20T04:25:23;97567.91;;;3.60;84.14
22755;BME280;11544;42.020;23.094;2023-03-20T04:27:54;97559.97;;;4.17;83.46
22755;BME280;11544;42.020;23.094;2023-03-20T04:30:24;97566.81;;;4.31;81.98
22755;BME280;11544;42.020;23.094;2023-03-20T04:32:52;97565.16;;;4.16;81.81
22755;BME280;11544;42.020;23.094;2023-03-20T04:35:19;97573.84;;;3.82;83.85
22755;BME280;11544;42.020;23.094;2023-03-20T04:37:49;97574.75;;;3.74;84.21
22755;BME280;11544;42.020;23.094;2023-03-20T04:40:19;97582.44;;;3.80;85.01
22755;BME280;11544;42.020;23.094;2023-03-20T04:42:49;97579.06;;;3.73;85.85
22755;BME280;11544;42.020;23.094;2023-03-20T04:45:16;97575.56;;;3.88;85.34
22755;BME280;11544;42.020;23.094;2023-03-20T04:47:44;97578.16;;;3.79;85.66
22755;BME280;11544;42.020;23.094;2023-03-20T04:50:11;97574.50;;;4.40;83.67
22755;BME280;11544;42.020;23.094;2023-03-20T04:52:39;97584.13;;;3.98;82.85
22755;BME280;11544;42.020;23.094;2023-03-20T04:55:07;97581.47;;;4.21;83.54
22755;BME280;11544;42.020;23.094;2023-03-20T04:57:33;97576.41;;;3.99;82.61
22755;BME280;11544;42.020;23.094;2023-03-20T05:00:00;97577.22;;;4.06;83.33
22755;BME280;11544;42.020;23.094;2023-03-20T05:02:27;97588.47;;;3.85;84.02
22755;BME280;11544;42.020;23.094;2023-03-20T05:04:54;97582.47;;;3.88;84.53
22755;BME280;11544;42.020;23.094;2023-03-20T05:07:21;97587.50;;;4.15;83.69
22755;BME280;11544;42.020;23.094;2023-03-20T05:09:48;97589.34;;;3.78;82.51
22755;BME280;11544;42.020;23.094;2023-03-20T05:12:17;97597.91;;;3.85;84.14
22755;BME280;11544;42.020;23.094;2023-03-20T05:14:44;97594.53;;;3.67;84.76
22755;BME280;11544;42.020;23.094;2023-03-20T05:17:11;97595.38;;;3.78;85.14
22755;BME280;11544;42.020;23.094;2023-03-20T05:19:38;97593.59;;;3.90;84.80
22755;BME280;11544;42.020;23.094;2023-03-20T05:22:05;97598.84;;;3.67;85.80
22755;BME280;11544;42.020;23.094;2023-03-20T05:24:32;97603.97;;;3.79;85.43
22755;BME280;11544;42.020;23.094;2023-03-20T05:26:59;97601.06;;;4.57;83.02
22755;BME280;11544;42.020;23.094;2023-03-20T05:29:26;97585.94;;;5.32;77.15
22755;BME280;11544;42.020;23.094;2023-03-20T05:31:53;97585.31;;;4.99;76.95
22755;BME280;11544;42.020;23.094;2023-03-20T05:34:23;97586.31;;;5.80;74.08
22755;BME280;11544;42.020;23.094;2023-03-20T05:36:50;97581.94;;;5.86;71.36
22755;BME280;11544;42.020;23.094;2023-03-20T05:39:17;97586.59;;;6.35;70.28
22755;BME280;11544;42.020;23.094;2023-03-20T05:41:43;97585.53;;;5.73;69.89
22755;BME280;11544;42.020;23.094;2023-03-20T05:44:11;97598.41;;;5.78;70.21
22755;BME280;11544;42.020;23.094;2023-03-20T05:46:38;97592.09;;;6.06;69.44
22755;BME280;11544;42.020;23.094;2023-03-20T05:49:04;97589.03;;;6.46;68.44
22755;BME280;11544;42.020;23.094;2023-03-20T05:51:32;97586.44;;;6.45;67.24
22755;BME280;11544;42.020;23.094;2023-03-20T05:53:58;97591.84;;;6.93;67.10
22755;BME280;11544;42.020;23.094;2023-03-20T05:56:26;97586.81;;;7.36;65.47
22755;BME280;11544;42.020;23.094;2023-03-20T05:58:53;97586.59;;;7.52;64.16
22755;BME280;11544;42.020;23.094;2023-03-20T06:01:22;97579.94;;;7.83;61.68
22755;BME280;11544;42.020;23.094;2023-03-20T06:03:49;97585.81;;;7.45;62.79
22755;BME280;11544;42.020;23.094;2023-03-20T06:06:16;97581.28;;;7.05;63.17
22755;BME280;11544;42.020;23.094;2023-03-20T06:08:46;97577.69;;;7.65;61.69
22755;BME280;11544;42.020;23.094;2023-03-20T06:11:13;97577.16;;;6.92;63.97
22755;BME280;11544;42.020;23.094;2023-03-20T06:13:41;97573.22;;;9.71;78.55
22755;BME280;11544;42.020;23.094;2023-03-20T06:16:08;97561.88;;;10.05;69.83
22755;BME280;11544;42.020;23.094;2023-03-20T06:18:36;97562.81;;;8.62;59.10
22755;BME280;11544;42.020;23.094;2023-03-20T06:21:04;97567.97;;;8.65;58.49
22755;BME280;11544;42.020;23.094;2023-03-20T06:23:31;97559.50;;;8.12;58.84
22755;BME280;11544;42.020;23.094;2023-03-20T06:25:58;97561.81;;;7.34;62.70
22755;BME280;11544;42.020;23.094;2023-03-20T06:28:25;97556.31;;;7.51;63.80
22755;BME280;11544;42.020;23.094;2023-03-20T06:30:52;97563.63;;;8.22;62.68
22755;BME280;11544;42.020;23.094;2023-03-20T06:33:20;97557.47;;;8.27;61.58
22755;BME280;11544;42.020;23.094;2023-03-20T06:35:47;97564.53;;;8.19;60.93
22755;BME280;11544;42.020;23.094;2023-03-20T06:38:15;97559.16;;;8.28;60.85
22755;BME280;11544;42.020;23.094;2023-03-20T06:40:42;97553.72;;;7.52;62.53
22755;BME280;11544;42.020;23.094;2023-03-20T06:43:10;97558.91;;;7.97;62.68
22755;BME280;11544;42.020;23.094;2023-03-20T06:45:38;97556.72;;;7.77;63.54
22755;BME280;11544;42.020;23.094;2023-03-20T06:48:08;97549.75;;;9.38;58.76
22755;BME280;11544;42.020;23.094;2023-03-20T06:50:36;97549.19;;;9.25;57.14
22755;BME280;11544;42.020;23.094;2023-03-20T06:53:03;97560.09;;;8.66;60.32
22755;BME280;11544;42.020;23.094;2023-03-20T06:55:30;97558.75;;;8.89;59.61
22755;BME280;11544;42.020;23.094;2023-03-20T06:57:57;97556.84;;;9.33;59.75
22755;BME280;11544;42.020;23.094;2023-03-20T07:00:24;97560.19;;;9.01;58.61
22755;BME280;11544;42.020;23.094;2023-03-20T07:02:51;97563.78;;;8.95;60.20
22755;BME280;11544;42.020;23.094;2023-03-20T07:05:18;97556.13;;;9.26;59.18
22755;BME280;11544;42.020;23.094;2023-03-20T07:07:45;97550.94;;;9.92;56.18
22755;BME280;11544;42.020;23.094;2023-03-20T07:10:12;97550.50;;;9.07;58.11
22755;BME280;11544;42.020;23.094;2023-03-20T07:12:39;97550.50;;;9.07;59.69
22755;BME280;11544;42.020;23.094;2023-03-20T07:15:06;97547.66;;;10.48;55.47
22755;BME280;11544;42.020;23.094;2023-03-20T07:17:35;97554.06;;;10.66;54.43
22755;BME280;11544;42.020;23.094;2023-03-20T07:20:03;97556.19;;;9.23;57.39
22755;BME280;11544;42.020;23.094;2023-03-20T07:22:30;97555.09;;;9.32;58.52
22755;BME280;11544;42.020;23.094;2023-03-20T07:24:57;97550.91;;;9.61;58.23
22755;BME280;11544;42.020;23.094;2023-03-20T07:27:24;97539.47;;;11.15;54.50
22755;BME280;11544;42.020;23.094;2023-03-20T07:29:51;97547.31;;;9.98;55.68
22755;BME280;11544;42.020;23.094;2023-03-20T07:32:19;97539.59;;;10.26;56.69
22755;BME280;11544;42.020;23.094;2023-03-20T07:34:49;97533.00;;;11.27;54.94
22755;BME280;11544;42.020;23.094;2023-03-20T07:37:19;97536.34;;;11.32;53.72
22755;BME280;11544;42.020;23.094;2023-03-20T07:39:46;97534.66;;;11.56;52.51
22755;BME280;11544;42.020;23.094;2023-03-20T07:42:13;97525.75;;;11.86;51.50
22755;BME280;11544;42.020;23.094;2023-03-20T07:44:39;97527.31;;;12.39;51.10
22755;BME280;11544;42.020;23.094;2023-03-20T07:47:07;97530.16;;;11.59;52.43
22755;BME280;11544;42.020;23.094;2023-03-20T07:49:34;97527.53;;;11.59;52.28
22755;BME280;11544;42.020;23.094;2023-03-20T07:52:01;97522.97;;;11.66;51.52
22755;BME280;11544;42.020;23.094;2023-03-20T07:54:28;97532.38;;;11.45;52.78
22755;BME280;11544;42.020;23.094;2023-03-20T07:56:55;97527.78;;;12.27;51.00
22755;BME280;11544;42.020;23.094;2023-03-20T07:59:22;97523.38;;;12.29;49.39
22755;BME280;11544;42.020;23.094;2023-03-20T08:01:49;97522.22;;;12.36;49.50
22755;BME280;11544;42.020;23.094;2023-03-20T08:04:15;97517.03;;;12.58;50.12
22755;BME280;11544;42.020;23.094;2023-03-20T08:06:45;97514.97;;;13.32;47.91
22755;BME280;11544;42.020;23.094;2023-03-20T08:09:12;97509.63;;;12.24;49.41
22755;BME280;11544;42.020;23.094;2023-03-20T08:11:39;97512.22;;;12.47;52.20
22755;BME280;11544;42.020;23.094;2023-03-20T08:14:06;97511.50;;;12.42;52.11
22755;BME280;11544;42.020;23.094;2023-03-20T08:16:33;97502.31;;;12.32;49.37
22755;BME280;11544;42.020;23.094;2023-03-20T08:19:06;97501.59;;;11.80;51.97
22755;BME280;11544;42.020;23.094;2023-03-20T08:21:34;97501.78;;;12.00;51.23
22755;BME280;11544;42.020;23.094;2023-03-20T08:24:01;97489.72;;;12.65;50.80
22755;BME280;11544;42.020;23.094;2023-03-20T08:26:37;97490.88;;;12.58;49.88
22755;BME280;11544;42.020;23.094;2023-03-20T08:29:07;97489.59;;;12.90;49.72
22755;BME280;11544;42.020;23.094;2023-03-20T08:31:37;97487.31;;;13.25;48.35
22755;BME280;11544;42.020;23.094;2023-03-20T08:34:05;97481.28;;;13.01;50.01
22755;BME280;11544;42.020;23.094;2023-03-20T08:36:33;97482.84;;;13.07;49.02
22755;BME280;11544;42.020;23.094;2023-03-20T08:39:00;97479.84;;;13.16;48.45
22755;BME280;11544;42.020;23.094;2023-03-20T08:41:27;97477.00;;;13.00;49.46
22755;BME280;11544;42.020;23.094;2023-03-20T08:43:55;97477.25;;;13.57;47.87
22755;BME280;11544;42.020;23.094;2023-03-20T08:46:22;97464.03;;;14.00;46.76
22755;BME280;11544;42.020;23.094;2023-03-20T08:48:49;97472.75;;;14.00;47.07
22755;BME280;11544;42.020;23.094;2023-03-20T08:51:17;97466.59;;;13.62;47.23
22755;BME280;11544;42.020;23.094;2023-03-20T08:53:44;97461.78;;;13.71;46.56
22755;BME280;11544;42.020;23.094;2023-03-20T08:56:11;97459.50;;;14.03;46.79
22755;BME280;11544;42.020;23.094;2023-03-20T08:58:38;97453.75;;;14.14;45.97
22755;BME280;11544;42.020;23.094;2023-03-20T09:01:07;97442.63;;;14.47;45.53
22755;BME280;11544;42.020;23.094;2023-03-20T09:03:35;97443.53;;;15.18;44.67
22755;BME280;11544;42.020;23.094;2023-03-20T09:06:06;97441.91;;;14.98;44.27
22755;BME280;11544;42.020;23.094;2023-03-20T09:08:36;97435.06;;;15.31;42.44
22755;BME280;11544;42.020;23.094;2023-03-20T09:11:04;97426.47;;;14.92;43.70
22755;BME280;11544;42.020;23.094;2023-03-20T09:13:31;97424.56;;;14.40;44.25
22755;BME280;11544;42.020;23.094;2023-03-20T09:15:58;97424.53;;;15.48;43.21
22755;BME280;11544;42.020;23.094;2023-03-20T09:18:29;97418.56;;;15.44;43.33
22755;BME280;11544;42.020;23.094;2023-03-20T09:20:56;97412.47;;;15.61;42.10
22755;BME280;11544;42.020;23.094;2023-03-20T09:23:23;97407.06;;;15.47;43.95
22755;BME280;11544;42.020;23.094;2023-03-20T09:25:50;97407.47;;;15.04;43.21
22755;BME280;11544;42.020;23.094;2023-03-20T09:28:17;97400.75;;;15.84;41.20
22755;BME280;11544;42.020;23.094;2023-03-20T09:30:43;97389.41;;;16.32;42.06
22755;BME280;11544;42.020;23.094;2023-03-20T09:33:11;97380.75;;;16.45;41.69
22755;BME280;11544;42.020;23.094;2023-03-20T09:35:40;97376.19;;;16.17;40.92
22755;BME280;11544;42.020;23.094;2023-03-20T09:38:09;97373.22;;;16.69;40.72
22755;BME280;11544;42.020;23.094;2023-03-20T09:40:55;97365.53;;;16.82;42.02
22755;BME280;11544;42.020;23.094;2023-03-20T09:46:28;97363.22;;;16.14;40.07
22755;BME280;11544;42.020;23.094;2023-03-20T09:49:27;97350.19;;;16.89;40.67
22755;BME280;11544;42.020;23.094;2023-03-20T09:52:01;97354.75;;;17.01;39.34
22755;BME280;11544;42.020;23.094;2023-03-20T09:54:44;97344.47;;;17.41;38.92
22755;BME280;11544;42.020;23.094;2023-03-20T09:57:31;97341.31;;;17.06;39.94
22755;BME280;11544;42.020;23.094;2023-03-20T10:00:04;97328.53;;;17.57;38.73
22755;BME280;11544;42.020;23.094;2023-03-20T10:05:44;97318.66;;;17.18;39.27
22755;BME280;11544;42.020;23.094;2023-03-20T10:08:17;97314.06;;;17.35;36.72
22755;BME280;11544;42.020;23.094;2023-03-20T10:10:50;97315.28;;;16.55;37.19
22755;BME280;11544;42.020;23.094;2023-03-20T10:16:18;97296.09;;;17.13;36.12
22755;BME280;11544;42.020;23.094;2023-03-20T10:19:15;97290.34;;;17.07;35.70
22755;BME280;11544;42.020;23.094;2023-03-20T10:21:47;97290.25;;;17.51;36.11
22755;BME280;11544;42.020;23.094;2023-03-20T10:26:48;97281.28;;;18.24;36.25
22755;BME280;11544;42.020;23.094;2023-03-20T10:29:32;97273.16;;;18.27;34.58
22755;BME280;11544;42.020;23.094;2023-03-20T10:32:23;97266.91;;;18.68;34.72
22755;BME280;11544;42.020;23.094;2023-03-20T10:37:59;97259.50;;;18.20;35.56
22755;BME280;11544;42.020;23.094;2023-03-20T10:40:32;97251.03;;;18.95;35.68
22755;BME280;11544;42.020;23.094;2023-03-20T10:43:25;97243.94;;;18.96;33.61
22755;BME280;11544;42.020;23.094;2023-03-20T10:46:03;97242.22;;;18.69;33.50
22755;BME280;11544;42.020;23.094;2023-03-20T10:48:41;97237.28;;;18.77;32.60
22755;BME280;11544;42.020;23.094;2023-03-20T10:51:18;97235.75;;;18.48;32.39
22755;BME280;11544;42.020;23.094;2023-03-20T10:53:53;97219.56;;;18.92;32.42
22755;BME280;11544;42.020;23.094;2023-03-20T10:56:41;97210.50;;;19.33;33.57
22755;BME280;11544;42.020;23.094;2023-03-20T10:59:23;97207.13;;;19.31;32.68
22755;BME280;11544;42.020;23.094;2023-03-20T11:01:51;97205.69;;;18.89;31.46
22755;BME280;11544;42.020;23.094;2023-03-20T11:04:18;97197.22;;;18.96;31.35
22755;BME280;11544;42.020;23.094;2023-03-20T11:06:47;97199.91;;;19.46;31.38
22755;BME280;11544;42.020;23.094;2023-03-20T11:09:21;97197.13;;;18.98;31.73
22755;BME280;11544;42.020;23.094;2023-03-20T11:11:51;97178.72;;;19.22;30.33
22755;BME280;11544;42.020;23.094;2023-03-20T11:14:23;97182.31;;;19.71;30.80
22755;BME280;11544;42.020;23.094;2023-03-20T11:16:55;97181.19;;;19.49;30.80
22755;BME280;11544;42.020;23.094;2023-03-20T11:19:26;97172.81;;;19.55;31.60
22755;BME280;11544;42.020;23.094;2023-03-20T11:21:57;97166.44;;;19.58;30.76
22755;BME280;11544;42.020;23.094;2023-03-20T11:24:45;97157.13;;;19.65;30.82
22755;BME280;11544;42.020;23.094;2023-03-20T11:27:39;97148.03;;;19.93;31.26
22755;BME280;11544;42.020;23.094;2023-03-20T11:30:11;97144.00;;;19.76;31.26
22755;BME280;11544;42.020;23.094;2023-03-20T11:32:53;97138.47;;;20.03;31.48
22755;BME280;11544;42.020;23.094;2023-03-20T11:38:05;97123.47;;;20.15;29.58
22755;BME280;11544;42.020;23.094;2023-03-20T11:40:34;97121.09;;;20.35;31.49
22755;BME280;11544;42.020;23.094;2023-03-20T11:43:31;97120.28;;;19.99;31.61
22755;BME280;11544;42.020;23.094;2023-03-20T11:46:12;97118.72;;;19.96;32.04
22755;BME280;11544;42.020;23.094;2023-03-20T11:48:41;97113.59;;;20.17;30.05
22755;BME280;11544;42.020;23.094;2023-03-20T11:51:18;97101.78;;;20.57;30.97
22755;BME280;11544;42.020;23.094;2023-03-20T11:56:24;97088.78;;;20.76;29.30
22755;BME280;11544;42.020;23.094;2023-03-20T11:58:55;97097.16;;;20.25;27.07
22755;BME280;11544;42.020;23.094;2023-03-20T12:01:25;97090.44;;;20.32;27.28
22755;BME280;11544;42.020;23.094;2023-03-20T12:04:09;97085.13;;;20.32;28.33
22755;BME280;11544;42.020;23.094;2023-03-20T12:14:57;97067.47;;;21.00;27.62
22755;BME280;11544;42.020;23.094;2023-03-20T12:20:46;97055.88;;;21.67;27.11
22755;BME280;11544;42.020;23.094;2023-03-20T12:23:43;97043.91;;;21.41;26.79
22755;BME280;11544;42.020;23.094;2023-03-20T12:26:19;97041.69;;;21.57;28.29
22755;BME280;11544;42.020;23.094;2023-03-20T12:34:28;97024.59;;;21.39;28.00
22755;BME280;11544;42.020;23.094;2023-03-20T12:36:58;97022.34;;;21.45;27.90
22755;BME280;11544;42.020;23.094;2023-03-20T12:39:31;97024.88;;;21.35;27.55
22755;BME280;11544;42.020;23.094;2023-03-20T12:42:06;97017.78;;;21.25;27.81
22755;BME280;11544;42.020;23.094;2023-03-20T12:50:31;97000.22;;;21.77;27.14
22755;BME280;11544;42.020;23.094;2023-03-20T12:58:57;96978.06;;;21.78;26.84
22755;BME280;11544;42.020;23.094;2023-03-20T13:01:30;96973.81;;;21.96;26.21
22755;BME280;11544;42.020;23.094;2023-03-20T13:15:12;96960.03;;;21.82;27.07
22755;BME280;11544;42.020;23.094;2023-03-20T13:17:49;96954.47;;;21.85;26.58
22755;BME280;11544;42.020;23.094;2023-03-20T13:20:25;96953.75;;;22.04;25.50
22755;BME280;11544;42.020;23.094;2023-03-20T13:34:26;96932.31;;;21.32;24.18
22755;BME280;11544;42.020;23.094;2023-03-20T13:37:46;96926.41;;;21.61;24.11
22755;BME280;11544;42.020;23.094;2023-03-20T13:40:27;96930.03;;;21.81;25.21
22755;BME280;11544;42.020;23.094;2023-03-20T13:48:01;96916.81;;;21.91;24.39
22755;BME280;11544;42.020;23.094;2023-03-20T13:53:18;96913.69;;;22.37;23.95
22755;BME280;11544;42.020;23.094;2023-03-20T13:56:04;96905.00;;;22.35;24.83
22755;BME280;11544;42.020;23.094;2023-03-20T13:58:45;96908.97;;;22.60;24.09
22755;BME280;11544;42.020;23.094;2023-03-20T14:04:14;96905.53;;;22.29;24.03
22755;BME280;11544;42.020;23.094;2023-03-20T14:06:47;96907.63;;;21.95;23.93
22755;BME280;11544;42.020;23.094;2023-03-20T14:09:35;96894.78;;;21.69;24.02
22755;BME280;11544;42.020;23.094;2023-03-20T14:12:10;96888.88;;;21.66;23.99
22755;BME280;11544;42.020;23.094;2023-03-20T14:14:45;96886.28;;;21.75;23.27
22755;BME280;11544;42.020;23.094;2023-03-20T14:17:31;96886.56;;;21.72;23.21
22755;BME280;11544;42.020;23.094;2023-03-20T14:20:10;96878.75;;;21.71;23.41
22755;BME280;11544;42.020;23.094;2023-03-20T14:22:39;96882.13;;;21.83;24.05
22755;BME280;11544;42.020;23.094;2023-03-20T14:25:17;96884.94;;;21.60;23.60
22755;BME280;11544;42.020;23.094;2023-03-20T14:28:05;96882.31;;;21.60;23.48
22755;BME280;11544;42.020;23.094;2023-03-20T14:35:49;96887.34;;;21.42;24.36
22755;BME280;11544;42.020;23.094;2023-03-20T14:39:21;96885.59;;;21.31;24.13
22755;BME280;11544;42.020;23.094;2023-03-20T14:41:56;96886.69;;;21.29;24.57
22755;BME280;11544;42.020;23.094;2023-03-20T14:44:43;96884.81;;;21.20;24.82
22755;BME280;11544;42.020;23.094;2023-03-20T14:47:25;96887.50;;;21.08;24.66
22755;BME280;11544;42.020;23.094;2023-03-20T14:50:17;96898.13;;;20.97;24.57
22755;BME280;11544;42.020;23.094;2023-03-20T14:52:53;96901.72;;;20.75;24.83
22755;BME280;11544;42.020;23.094;2023-03-20T14:58:27;96895.00;;;20.60;26.20
22755;BME280;11544;42.020;23.094;2023-03-20T15:00:52;96901.88;;;20.62;26.77
22755;BME280;11544;42.020;23.094;2023-03-20T15:03:20;96902.59;;;20.53;26.89
22755;BME280;11544;42.020;23.094;2023-03-20T15:05:58;96892.91;;;20.08;27.69
22755;BME280;11544;42.020;23.094;2023-03-20T15:08:32;96881.22;;;20.22;27.46
22755;BME280;11544;42.020;23.094;2023-03-20T15:11:05;96880.13;;;20.25;27.61
22755;BME280;11544;42.020;23.094;2023-03-20T15:13:35;96880.25;;;20.35;27.42
22755;BME280;11544;42.020;23.094;2023-03-20T15:16:08;96881.34;;;20.21;27.96
22755;BME280;11544;42.020;23.094;2023-03-20T15:18:49;96887.22;;;20.24;28.10
22755;BME280;11544;42.020;23.094;2023-03-20T15:21:26;96875.78;;;20.24;28.52
22755;BME280;11544;42.020;23.094;2023-03-20T15:23:54;96892.03;;;20.19;28.65
22755;BME280;11544;42.020;23.094;2023-03-20T15:26:21;96893.94;;;20.17;29.33
22755;BME280;11544;42.020;23.094;2023-03-20T15:28:58;96884.59;;;20.13;29.11
22755;BME280;11544;42.020;23.094;2023-03-20T15:31:29;96895.88;;;20.26;29.17
22755;BME280;11544;42.020;23.094;2023-03-20T15:33:59;96898.56;;;20.04;29.70
22755;BME280;11544;42.020;23.094;2023-03-20T15:36:30;96896.75;;;19.82;30.16
22755;BME280;11544;42.020;23.094;2023-03-20T15:39:03;96893.00;;;20.07;29.79
22755;BME280;11544;42.020;23.094;2023-03-20T15:41:33;96894.47;;;20.00;30.06